Raleigh, Canada
Current Conditions -  °F | °C
As of 1:00 AM on Friday 19 Dec 2014 (Local Time) from CYAY Reporting Station
Overcast Overcast  
Wind Chill: 24°   Ceiling: 1100
Heat Index: 32°   Visibility: 9mi
Dew Point: 32°   Wind: 10mph
Humidity: 100%   Direction: 30°NNE
Pressure: 29.64"   Gusts: NA
Location:  51.55°N, 55.72°W
Report Text: CYAY 190400Z AUTO 03009KT 9SM OVC011 00/00 A2964 RMK ICG PAST HR PRESRR SLP038
Loading
Personal Weather Stations






























Interactive Weather Map New forecast layout! Learn more

10-Day Weather Forecast

Advertisements
Track Severe Weather on mobile